Time,TemperatureF,DewpointF,PressureIn,WindDirection,WindDirectionDegrees,WindSpeedMPH,WindSpeedGustMPH,Humidity,HourlyPrecipIn,Conditions,Clouds,dailyrainin,SoftwareType,DateUTC
2013-05-11 00:03:00,65.1,62.0,29.85,SW,223,0.0,0.0,88,0.00,,,0.00,weatherlink.com 1.10,2013-05-11 04:03:00,
2013-05-11 00:18:00,64.8,61.0,29.85,SW,223,0.0,0.0,88,0.00,,,0.00,weatherlink.com 1.10,2013-05-11 04:18:00,
2013-05-11 00:33:00,64.8,61.0,29.86,SW,223,0.0,2.0,88,0.00,,,0.00,weatherlink.com 1.10,2013-05-11 04:33:00,
2013-05-11 00:48:00,64.7,62.0,29.85,SW,223,0.0,0.0,89,0.00,,,0.00,weatherlink.com 1.10,2013-05-11 04:48:00,
2013-05-11 01:03:00,64.7,62.0,29.85,SW,223,0.0,1.0,89,0.00,,,0.00,weatherlink.com 1.10,2013-05-11 05:03:00,
2013-05-11 01:18:00,64.5,61.0,29.85,SW,223,0.0,0.0,89,0.00,,,0.00,weatherlink.com 1.10,2013-05-11 05:18:00,
2013-05-11 01:33:00,64.3,61.0,29.84,SW,223,0.0,1.0,89,0.00,,,0.00,weatherlink.com 1.10,2013-05-11 05:33:00,
2013-05-11 01:48:00,65.0,61.0,29.84,SW,223,0.0,3.0,87,0.00,,,0.00,weatherlink.com 1.10,2013-05-11 05:48:00,
2013-05-11 02:03:00,65.4,61.0,29.83,SSW,213,0.0,2.0,86,0.00,,,0.00,weatherlink.com 1.10,2013-05-11 06:03:00,
2013-05-11 02:18:00,65.7,61.0,29.82,SW,214,0.0,2.0,85,0.00,,,0.00,weatherlink.com 1.10,2013-05-11 06:18:00,
2013-05-11 02:33:00,65.2,61.0,29.82,SW,214,0.0,1.0,86,0.00,,,0.00,weatherlink.com 1.10,2013-05-11 06:33:00,
2013-05-11 02:48:00,65.1,61.0,29.81,SW,214,1.0,2.0,86,0.00,,,0.00,weatherlink.com 1.10,2013-05-11 06:48:00,
2013-05-11 03:03:00,64.9,61.0,29.81,SW,214,0.0,2.0,87,0.00,,,0.00,weatherlink.com 1.10,2013-05-11 07:03:00,
2013-05-11 03:18:00,64.7,61.0,29.80,SW,214,2.0,2.0,88,0.00,,,0.00,weatherlink.com 1.10,2013-05-11 07:18:00,
2013-05-11 03:33:00,64.8,61.0,29.80,SW,214,0.0,1.0,88,0.00,,,0.00,weatherlink.com 1.10,2013-05-11 07:33:00,
2013-05-11 03:48:00,65.2,61.0,29.79,South,182,4.0,4.0,87,0.00,,,0.00,weatherlink.com 1.10,2013-05-11 07:48:00,
2013-05-11 04:03:00,65.3,61.0,29.79,SW,223,1.0,3.0,86,0.00,,,0.00,weatherlink.com 1.10,2013-05-11 08:03:00,
2013-05-11 04:18:00,64.8,61.0,29.79,SW,231,1.0,4.0,87,0.00,,,0.00,weatherlink.com 1.10,2013-05-11 08:18:00,
2013-05-11 04:33:00,63.8,61.0,29.79,SW,231,0.0,1.0,89,0.00,,,0.00,weatherlink.com 1.10,2013-05-11 08:33:00,
2013-05-11 04:48:00,63.0,60.0,29.79,SW,231,3.0,3.0,90,0.00,,,0.00,weatherlink.com 1.10,2013-05-11 08:48:00,
2013-05-11 05:03:00,62.5,60.0,29.80,SW,233,1.0,2.0,91,0.00,,,0.00,weatherlink.com 1.10,2013-05-11 09:03:00,
2013-05-11 05:34:00,61.6,59.0,29.78,NNW,331,1.0,3.0,91,0.00,,,0.00,weatherlink.com 1.10,2013-05-11 09:34:00,
2013-05-11 05:49:00,60.4,58.0,29.78,NNW,331,0.0,2.0,92,0.00,,,0.00,weatherlink.com 1.10,2013-05-11 09:49:00,
2013-05-11 06:04:00,59.7,58.0,29.79,NNW,331,1.0,2.0,93,0.00,,,0.00,weatherlink.com 1.10,2013-05-11 10:04:00,
2013-05-11 06:19:00,59.4,58.0,29.79,ENE,74,1.0,2.0,94,0.00,,,0.00,weatherlink.com 1.10,2013-05-11 10:19:00,
2013-05-11 06:34:00,58.9,57.0,29.80,ENE,59,0.0,1.0,94,0.00,,,0.00,weatherlink.com 1.10,2013-05-11 10:34:00,
2013-05-11 06:49:00,58.6,57.0,29.80,ENE,59,0.0,1.0,94,0.00,,,0.00,weatherlink.com 1.10,2013-05-11 10:49:00,
2013-05-11 07:04:00,58.5,57.0,29.80,ENE,59,0.0,2.0,95,0.00,,,0.00,weatherlink.com 1.10,2013-05-11 11:04:00,
2013-05-11 07:19:00,58.3,57.0,29.80,NNE,22,0.0,1.0,95,0.00,,,0.00,weatherlink.com 1.10,2013-05-11 11:19:00,
2013-05-11 07:34:00,58.9,58.0,29.79,NNW,340,0.0,2.0,96,0.00,,,0.00,weatherlink.com 1.10,2013-05-11 11:34:00,
2013-05-11 07:49:00,61.1,60.0,29.80,NNW,347,0.0,1.0,95,0.00,,,0.00,weatherlink.com 1.10,2013-05-11 11:49:00,
2013-05-11 08:04:00,63.1,60.0,29.80,NNW,338,0.0,1.0,89,0.00,,,0.00,weatherlink.com 1.10,2013-05-11 12:04:00,
2013-05-11 08:19:00,64.3,60.0,29.80,SSW,196,0.0,3.0,86,0.00,,,0.00,weatherlink.com 1.10,2013-05-11 12:19:00,
2013-05-11 08:34:00,65.6,60.0,29.80,SSW,196,0.0,2.0,83,0.00,,,0.00,weatherlink.com 1.10,2013-05-11 12:34:00,
2013-05-11 08:49:00,66.8,61.0,29.80,South,171,0.0,3.0,81,0.00,,,0.00,weatherlink.com 1.10,2013-05-11 12:49:00,
2013-05-11 09:04:00,67.9,60.0,29.80,SSE,148,0.0,3.0,77,0.00,,,0.00,weatherlink.com 1.10,2013-05-11 13:04:00,
2013-05-11 09:19:00,69.3,61.0,29.80,South,188,1.0,4.0,75,0.00,,,0.00,weatherlink.com 1.10,2013-05-11 13:19:00,
2013-05-11 09:34:00,69.2,61.0,29.79,West,260,5.0,7.0,76,0.00,,,0.00,weatherlink.com 1.10,2013-05-11 13:34:00,
2013-05-11 09:49:00,70.3,61.0,29.80,SSW,212,2.0,8.0,72,0.00,,,0.00,weatherlink.com 1.10,2013-05-11 13:49:00,
2013-05-11 10:04:00,71.1,60.0,29.80,WSW,238,2.0,7.0,68,0.00,,,0.00,weatherlink.com 1.10,2013-05-11 14:04:00,
2013-05-11 10:19:00,71.7,60.0,29.80,SW,215,3.0,8.0,66,0.00,,,0.00,weatherlink.com 1.10,2013-05-11 14:19:00,
2013-05-11 10:34:00,70.9,60.0,29.79,WSW,256,4.0,8.0,68,0.00,,,0.00,weatherlink.com 1.10,2013-05-11 14:34:00,
2013-05-11 10:49:00,72.3,61.0,29.80,WSW,246,7.0,9.0,68,0.00,,,0.00,weatherlink.com 1.10,2013-05-11 14:49:00,
2013-05-11 11:04:00,72.3,61.0,29.79,West,265,7.0,8.0,67,0.00,,,0.00,weatherlink.com 1.10,2013-05-11 15:04:00,
2013-05-11 11:19:00,73.0,60.0,29.79,West,259,2.0,6.0,64,0.00,,,0.00,weatherlink.com 1.10,2013-05-11 15:19:00,
2013-05-11 11:34:00,73.2,60.0,29.79,WSW,250,2.0,6.0,63,0.00,,,0.00,weatherlink.com 1.10,2013-05-11 15:34:00,
2013-05-11 11:49:00,73.0,59.0,29.79,WSW,253,4.0,5.0,62,0.00,,,0.00,weatherlink.com 1.10,2013-05-11 15:49:00,
2013-05-11 12:04:00,72.8,61.0,29.78,WSW,255,2.0,5.0,66,0.00,,,0.00,weatherlink.com 1.10,2013-05-11 16:04:00,
2013-05-11 12:19:00,73.4,61.0,29.78,SW,227,1.0,4.0,66,0.00,,,0.00,weatherlink.com 1.10,2013-05-11 16:19:00,
2013-05-11 12:34:00,74.4,62.0,29.77,SW,215,2.0,5.0,66,0.00,,,0.00,weatherlink.com 1.10,2013-05-11 16:34:00,
2013-05-11 12:49:00,74.9,62.0,29.78,SSW,199,1.0,7.0,64,0.00,,,0.00,weatherlink.com 1.10,2013-05-11 16:49:00,
2013-05-11 13:04:00,75.5,62.0,29.78,South,185,6.0,9.0,63,0.00,,,0.00,weatherlink.com 1.10,2013-05-11 17:04:00,
2013-05-11 13:19:00,76.0,62.0,29.76,SSW,213,3.0,6.0,62,0.00,,,0.00,weatherlink.com 1.10,2013-05-11 17:19:00,
2013-05-11 13:34:00,75.5,61.0,29.76,SSW,208,1.0,6.0,61,0.00,,,0.00,weatherlink.com 1.10,2013-05-11 17:34:00,
2013-05-11 13:49:00,75.3,62.0,29.76,SSW,198,3.0,7.0,64,0.00,,,0.00,weatherlink.com 1.10,2013-05-11 17:49:00,
2013-05-11 14:04:00,75.3,63.0,29.75,SW,225,2.0,8.0,65,0.00,,,0.00,weatherlink.com 1.10,2013-05-11 18:04:00,
2013-05-11 14:19:00,75.3,63.0,29.75,SW,218,1.0,7.0,65,0.00,,,0.00,weatherlink.com 1.10,2013-05-11 18:19:00,
2013-05-11 14:35:00,75.0,62.0,29.75,WSW,238,4.0,7.0,65,0.00,,,0.00,weatherlink.com 1.10,2013-05-11 18:35:00,
2013-05-11 14:50:00,74.1,64.0,29.75,West,264,3.0,6.0,70,0.00,,,0.00,weatherlink.com 1.10,2013-05-11 18:50:00,
2013-05-11 15:05:00,71.0,64.0,29.75,WSW,251,4.0,8.0,78,0.00,,,0.00,weatherlink.com 1.10,2013-05-11 19:05:00,
2013-05-11 15:20:00,69.3,65.0,29.75,SW,230,3.0,5.0,85,0.00,,,0.00,weatherlink.com 1.10,2013-05-11 19:20:00,
2013-05-11 15:35:00,69.4,65.0,29.75,SSW,203,5.0,7.0,86,0.00,,,0.00,weatherlink.com 1.10,2013-05-11 19:35:00,
2013-05-11 15:50:00,70.0,65.0,29.74,SSE,156,4.0,5.0,85,0.00,,,0.00,weatherlink.com 1.10,2013-05-11 19:50:00,
2013-05-11 16:05:00,71.0,66.0,29.72,ESE,121,0.0,4.0,83,0.00,,,0.00,weatherlink.com 1.10,2013-05-11 20:05:00,
2013-05-11 16:20:00,71.6,66.0,29.72,SSW,204,1.0,4.0,81,0.00,,,0.00,weatherlink.com 1.10,2013-05-11 20:20:00,
2013-05-11 16:35:00,72.2,66.0,29.71,South,171,3.0,4.0,80,0.00,,,0.00,weatherlink.com 1.10,2013-05-11 20:35:00,
2013-05-11 16:50:00,73.5,67.0,29.71,South,180,7.0,8.0,79,0.00,,,0.00,weatherlink.com 1.10,2013-05-11 20:50:00,
2013-05-11 17:05:00,74.3,65.0,29.71,SSW,203,4.0,12.0,73,0.00,,,0.00,weatherlink.com 1.10,2013-05-11 21:05:00,
2013-05-11 17:20:00,73.6,65.0,29.70,SSW,207,1.0,7.0,74,0.00,,,0.00,weatherlink.com 1.10,2013-05-11 21:20:00,
2013-05-11 17:35:00,74.3,65.0,29.69,South,176,6.0,6.0,73,0.00,,,0.00,weatherlink.com 1.10,2013-05-11 21:35:00,
2013-05-11 17:50:00,75.5,64.0,29.69,SSW,196,6.0,12.0,68,0.00,,,0.00,weatherlink.com 1.10,2013-05-11 21:50:00,
2013-05-11 18:05:00,75.4,65.0,29.68,SW,223,4.0,11.0,70,0.00,,,0.00,weatherlink.com 1.10,2013-05-11 22:05:00,
2013-05-11 18:20:00,74.3,63.0,29.68,SW,234,4.0,10.0,69,0.00,,,0.00,weatherlink.com 1.10,2013-05-11 22:20:00,
2013-05-11 18:35:00,73.4,64.0,29.70,SW,225,3.0,6.0,72,0.00,,,0.00,weatherlink.com 1.10,2013-05-11 22:35:00,
2013-05-11 18:50:00,72.8,64.0,29.69,SSW,205,5.0,7.0,73,0.00,,,0.00,weatherlink.com 1.10,2013-05-11 22:50:00,
2013-05-11 19:05:00,64.4,61.0,29.72,WNW,288,5.0,16.0,87,0.03,,,0.03,weatherlink.com 1.10,2013-05-11 23:05:00,
2013-05-11 19:20:00,63.1,61.0,29.72,South,175,4.0,4.0,92,0.06,,,0.06,weatherlink.com 1.10,2013-05-11 23:20:00,
2013-05-11 19:35:00,62.4,60.0,29.74,SSW,213,3.0,5.0,93,0.07,,,0.07,weatherlink.com 1.10,2013-05-11 23:35:00,
2013-05-11 19:50:00,62.1,60.0,29.73,East,92,1.0,3.0,94,0.09,,,0.09,weatherlink.com 1.10,2013-05-11 23:50:00,
2013-05-11 20:05:00,62.0,60.0,29.73,NE,34,0.0,4.0,94,0.06,,,0.09,weatherlink.com 1.10,2013-05-12 00:05:00,
2013-05-11 20:20:00,62.0,61.0,29.74,East,101,0.0,3.0,95,0.03,,,0.09,weatherlink.com 1.10,2013-05-12 00:20:00,
2013-05-11 20:35:00,61.9,61.0,29.74,East,101,0.0,1.0,95,0.02,,,0.09,weatherlink.com 1.10,2013-05-12 00:35:00,
2013-05-11 20:50:00,61.6,60.0,29.74,East,101,2.0,2.0,95,0.00,,,0.09,weatherlink.com 1.10,2013-05-12 00:50:00,
2013-05-11 21:05:00,61.6,61.0,29.74,East,101,1.0,2.0,96,0.00,,,0.09,weatherlink.com 1.10,2013-05-12 01:05:00,
2013-05-11 21:20:00,61.6,61.0,29.73,East,96,1.0,3.0,96,0.00,,,0.09,weatherlink.com 1.10,2013-05-12 01:20:00,
2013-05-11 21:35:00,61.6,61.0,29.74,East,96,0.0,2.0,96,0.00,,,0.09,weatherlink.com 1.10,2013-05-12 01:35:00,
2013-05-11 21:50:00,61.5,60.0,29.75,East,96,0.0,2.0,96,0.00,,,0.09,weatherlink.com 1.10,2013-05-12 01:50:00,
2013-05-11 22:05:00,61.4,60.0,29.75,ENE,65,0.0,3.0,96,0.00,,,0.09,weatherlink.com 1.10,2013-05-12 02:05:00,
2013-05-11 22:20:00,61.2,60.0,29.75,ENE,65,0.0,1.0,96,0.00,,,0.09,weatherlink.com 1.10,2013-05-12 02:20:00,
2013-05-11 22:35:00,61.2,60.0,29.75,ENE,65,0.0,2.0,97,0.00,,,0.09,weatherlink.com 1.10,2013-05-12 02:35:00,
2013-05-11 22:50:00,61.2,60.0,29.75,ENE,65,0.0,1.0,97,0.00,,,0.09,weatherlink.com 1.10,2013-05-12 02:50:00,
2013-05-11 23:05:00,61.0,60.0,29.75,NE,48,2.0,4.0,96,0.00,,,0.09,weatherlink.com 1.10,2013-05-12 03:05:00,
2013-05-11 23:20:00,60.9,60.0,29.76,NE,48,0.0,1.0,97,0.00,,,0.09,weatherlink.com 1.10,2013-05-12 03:20:00,
2013-05-11 23:35:00,60.9,60.0,29.76,NE,48,0.0,1.0,97,0.00,,,0.09,weatherlink.com 1.10,2013-05-12 03:35:00,
2013-05-11 23:50:00,60.8,60.0,29.76,NE,48,0.0,1.0,97,0.00,,,0.09,weatherlink.com 1.10,2013-05-12 03:50:00,